シドニー の空港の天気 - METARとTAF

シドニー国際空港 ( YSSY / SYD ) - オーストラリア ニューサウスウェールズ州、Mascot
飛行場実況気象(Metar)
観測時間11/27 19:56 AEDT (11/27 08:56 UTC)
風向・風速西北西 6m/s
視程10km以上
天気現象弱いしゅう雨 周辺で雷 雷
少しの雲 雲底高度 550m
全天の4割程度の雲 雲底高度 1370m
全天の8割程度の雲 雲底高度 2740m
少しの雲 雲底高度 1520m
気温22℃
湿度73%
気圧1002hPa
METARYSSY 270856Z 30012KT 9999 -SHRA VCTS FEW018 SCT045 BKN090 FEW050CB 22/17 Q1002 RESHRA RETS
過去の天気等 Google飛行場航空写真 Wunderground天気予報

過去48時間のMETAR

飛行場予報(TAF)
発表時間: 11/27 19:05 AEDT (11/27 08:05 UTC)
予報対象時間: 27日20時 AEDT ~ 28日23時 AEDT
風向・風速北北東 7m/s
視程10km以上
天気現象弱いしゅう雨
なし
28日0時 AEDT から
風向・風速南 9m/s 瞬間風速 14m/s
視程10km以上
天気現象弱いしゅう雨
全天の4割程度の雲 雲底高度 240m
全天の8割程度の雲 雲底高度 460m
28日5時 AEDT から
風向・風速南 7m/s
視程10km以上
天気現象運行に影響にある天気現象が終了
全天の4割程度の雲 雲底高度 460m
全天の8割程度の雲 雲底高度 610m
28日13時 AEDT から
風向・風速東 5m/s
視程10km以上
全天の8割程度の雲 雲底高度 760m
28日20時 AEDT から
風向・風速北東 4m/s
視程10km以上
全天の8割程度の雲 雲底高度 910m
TAF YSSY 270805Z 2709/2812 03014KT 9999 -SHRA NSC
FM271300 18018G28KT 9999 -SHRA SCT008 BKN015
FM271800 18014KT 9999 NSW SCT015 BKN020
FM280200 09009KT 9999 BKN025
FM280900 05008KT 9999 BKN030 INTER 2709/2710 VRB25G40KT 4000 TSRA SCT030 SCT060CB
PROB30 INTER 2710/2713 VRB25G40KT 6000 TSRA SCT030 FEW060CB